Time;durP1;ratioP1;P1;durP2;ratioP2;P2;SDS_P1;SDS_P2;PMS_P1;PMS_P2;Temp;Humidity;BMP_temperature;BMP_pressure;BME280_temperature;BME280_humidity;BME280_pressure;Samples;Min_cycle;Max_cycle;Signal;HPM_P1;HPM_P2
2022/09/06 00:00:37;;;;;;;2.35;1.83;;;;;;;16.24;39.36;101818.66;5078648;28;20078;-71
2022/09/06 00:03:03;;;;;;;2.08;1.80;;;;;;;16.29;39.35;101816.66;5096812;28;20146;-71
2022/09/06 00:05:30;;;;;;;2.00;1.70;;;;;;;16.19;39.14;101818.03;5076225;28;20499;-72
2022/09/06 00:08:01;;;;;;;4.05;1.88;;;;;;;16.23;39.14;101814.31;5094835;28;20109;-69
2022/09/06 00:10:28;;;;;;;2.90;1.55;;;;;;;16.21;39.13;101806.47;5092823;28;20074;-68
2022/09/06 00:12:54;;;;;;;3.03;1.55;;;;;;;16.15;39.13;101801.53;5094451;28;20317;-69
2022/09/06 00:15:21;;;;;;;5.57;1.83;;;;;;;16.36;38.56;101793.47;5093927;28;20032;-69
2022/09/06 00:17:47;;;;;;;2.40;1.70;;;;;;;16.27;38.60;101802.69;5078293;28;20082;-69
2022/09/06 00:20:14;;;;;;;3.70;1.52;;;;;;;16.21;38.88;101803.00;5075505;28;20031;-70
2022/09/06 00:22:39;;;;;;;1.73;1.48;;;;;;;16.18;38.96;101806.63;5078804;28;20935;-69
2022/09/06 00:25:06;;;;;;;4.88;2.22;;;;;;;16.15;38.83;101801.53;5078453;28;20449;-68
2022/09/06 00:27:32;;;;;;;8.50;1.92;;;;;;;16.15;38.79;101798.88;5075963;28;20036;-69
2022/09/06 00:29:57;;;;;;;5.53;1.92;;;;;;;16.14;38.85;101796.31;5078721;28;20027;-69
2022/09/06 00:32:23;;;;;;;2.85;1.80;;;;;;;16.04;39.13;101789.78;5076429;28;20312;-70
2022/09/06 00:34:48;;;;;;;3.42;1.80;;;;;;;16.08;38.93;101779.00;5075565;28;20067;-69
2022/09/06 00:37:14;;;;;;;4.32;1.92;;;;;;;15.95;39.12;101778.72;5075602;28;20078;-71
2022/09/06 00:39:39;;;;;;;4.18;2.55;;;;;;;16.07;38.95;101787.00;5077930;28;20272;-68
2022/09/06 00:42:09;;;;;;;2.28;2.08;;;;;;;15.94;39.00;101792.81;5078548;28;20046;-67
2022/09/06 00:44:36;;;;;;;2.72;1.90;;;;;;;16.10;39.05;101785.06;5077932;28;20036;-68
2022/09/06 00:47:02;;;;;;;5.25;1.90;;;;;;;16.19;38.58;101786.38;5078166;28;20032;-68
2022/09/06 00:49:33;;;;;;;4.65;2.03;;;;;;;16.11;38.67;101784.16;5077150;28;20028;-68
2022/09/06 00:52:06;;;;;;;4.27;2.47;;;;;;;15.96;38.87;101783.06;5078136;28;20042;-67
2022/09/06 00:54:32;;;;;;;2.33;2.13;;;;;;;16.09;38.56;101777.25;5091245;28;20044;-68
2022/09/06 00:56:58;;;;;;;2.47;1.95;;;;;;;16.04;38.84;101784.50;5077269;28;20039;-68
2022/09/06 00:59:26;;;;;;;3.15;1.98;;;;;;;16.06;38.81;101785.28;5074583;28;20028;-68
2022/09/06 01:01:51;;;;;;;4.53;2.25;;;;;;;16.19;38.55;101781.09;5077982;28;20127;-68
2022/09/06 01:04:17;;;;;;;1.88;1.40;;;;;;;16.00;38.87;101782.03;5076163;28;20036;-68
2022/09/06 01:06:58;;;;;;;2.13;1.67;;;;;;;15.99;38.98;101785.56;5076907;28;20078;-68
2022/09/06 01:09:39;;;;;;;3.55;1.92;;;;;;;15.82;39.17;101785.53;5075464;28;20023;-68
2022/09/06 01:12:42;;;;;;;3.58;2.08;;;;;;;15.94;39.07;101774.38;5078344;28;20546;-69
2022/09/06 01:15:13;;;;;;;2.35;2.13;;;;;;;15.86;39.19;101779.16;5079266;28;20428;-67
2022/09/06 01:17:51;;;;;;;;;;;;;;;15.78;39.47;101783.97;5077756;28;20039;-71
2022/09/06 01:20:34;;;;;;;5.20;2.03;;;;;;;15.65;39.64;101774.91;5074191;28;20364;-67
2022/09/06 01:23:27;;;;;;;3.55;2.42;;;;;;;15.92;39.32;101778.88;5077133;28;20054;-66
2022/09/06 01:26:07;;;;;;;2.05;1.75;;;;;;;15.91;39.25;101774.53;5077694;28;20058;-66
2022/09/06 01:28:39;;;;;;;2.67;1.90;;;;;;;15.74;39.53;101769.22;5076029;28;20093;-69
2022/09/06 01:31:26;;;;;;;4.07;2.55;;;;;;;15.83;39.43;101770.56;5077901;28;20392;-69
2022/09/06 01:34:06;;;;;;;2.72;2.20;;;;;;;15.68;39.58;101780.03;5078182;28;20123;-71
2022/09/06 01:37:03;;;;;;;4.68;2.38;;;;;;;15.91;39.34;101782.44;5074803;28;21606;-68
2022/09/06 01:39:33;;;;;;;3.45;2.13;;;;;;;15.82;39.55;101787.28;5060846;28;20040;-68
2022/09/06 01:42:08;;;;;;;2.92;2.25;;;;;;;15.71;39.79;101785.19;5076634;28;20139;-68
2022/09/06 01:44:36;;;;;;;5.25;2.25;;;;;;;15.62;39.96;101781.19;5075417;28;20039;-70
2022/09/06 01:47:10;;;;;;;4.15;2.65;;;;;;;15.77;39.77;101769.94;5076838;28;20441;-70
2022/09/06 01:49:50;;;;;;;4.93;2.67;;;;;;;15.67;39.73;101783.63;5075405;28;20610;-70
2022/09/06 01:52:26;;;;;;;5.78;2.25;;;;;;;15.71;39.76;101782.53;5074523;28;20093;-70
2022/09/06 01:54:52;;;;;;;3.72;2.80;;;;;;;15.72;39.75;101771.06;5075495;28;20024;-69
2022/09/06 01:57:57;;;;;;;6.95;2.63;;;;;;;15.78;39.66;101765.50;5074580;28;20052;-70
2022/09/06 02:00:24;;;;;;;5.07;1.92;;;;;;;15.68;39.98;101753.69;5071673;28;20031;-72
2022/09/06 02:02:49;;;;;;;2.78;2.20;;;;;;;15.61;40.04;101754.91;5078188;28;20051;-72
2022/09/06 02:05:20;;;;;;;5.82;3.00;;;;;;;15.54;40.23;101755.19;5075729;28;20092;-72
2022/09/06 02:07:49;;;;;;;4.20;2.40;;;;;;;15.63;40.09;101758.31;5078429;28;20044;-72
2022/09/06 02:10:24;;;;;;;2.55;2.13;;;;;;;15.57;40.07;101765.59;5067145;28;20020;-68
2022/09/06 02:12:54;;;;;;;3.50;2.58;;;;;;;15.54;40.23;101752.56;5077713;28;20039;-67
2022/09/06 02:15:33;;;;;;;3.63;2.10;;;;;;;15.50;40.20;101758.03;5074850;28;20032;-69
2022/09/06 02:18:12;;;;;;;4.65;2.47;;;;;;;15.41;40.40;101759.31;5077427;28;20424;-68
2022/09/06 02:20:44;;;;;;;11.65;2.70;;;;;;;15.33;40.54;101753.56;5074274;28;20034;-67
2022/09/06 02:23:10;;;;;;;3.15;2.20;;;;;;;15.50;40.11;101756.25;5077276;28;20060;-68
2022/09/06 02:25:40;;;;;;;3.25;2.05;;;;;;;15.28;40.79;101750.28;5075172;28;20036;-67
2022/09/06 02:28:07;;;;;;;5.50;2.35;;;;;;;15.49;40.06;101751.09;5078148;28;20123;-68
2022/09/06 02:30:38;;;;;;;5.88;2.50;;;;;;;15.43;40.29;101746.09;5074426;28;21210;-73
2022/09/06 02:33:07;;;;;;;;;;;;;;;15.40;40.41;101752.38;5080046;28;20044;-69
2022/09/06 02:35:41;;;;;;;3.63;2.45;;;;;;;15.63;39.94;101747.78;5073754;28;23158;-68
2022/09/06 02:38:07;;;;;;;4.35;2.63;;;;;;;15.44;40.40;101747.78;5077615;28;20060;-69
2022/09/06 02:40:36;;;;;;;4.68;2.67;;;;;;;15.37;40.96;101749.84;5074363;28;20044;-68
2022/09/06 02:43:01;;;;;;;2.97;2.67;;;;;;;15.46;40.50;101738.03;5076380;28;20047;-68
2022/09/06 02:45:26;;;;;;;3.40;2.45;;;;;;;15.34;40.60;101734.19;5077056;28;20043;-69
2022/09/06 02:47:52;;;;;;;3.33;2.58;;;;;;;15.24;41.00;101735.53;5077209;28;20044;-67
2022/09/06 02:50:17;;;;;;;3.85;2.78;;;;;;;15.30;40.94;101735.25;5075970;28;20111;-69
2022/09/06 02:52:43;;;;;;;4.38;2.65;;;;;;;15.23;41.12;101742.59;5077296;28;20066;-67
2022/09/06 02:55:08;;;;;;;7.35;3.40;;;;;;;15.23;41.08;101739.13;5079117;28;20032;-70
2022/09/06 02:57:34;;;;;;;7.13;3.30;;;;;;;15.31;40.98;101740.47;5067445;28;20044;-68
2022/09/06 02:59:59;;;;;;;3.75;2.08;;;;;;;15.26;41.09;101736.31;5090628;28;20484;-68
2022/09/06 03:02:25;;;;;;;5.40;2.80;;;;;;;15.08;41.59;101733.59;5075794;28;20116;-68
2022/09/06 03:04:50;;;;;;;5.13;3.17;;;;;;;15.19;41.42;101727.81;5074567;28;20032;-69
2022/09/06 03:07:16;;;;;;;5.43;3.63;;;;;;;15.23;41.39;101728.59;5075103;28;20389;-69
2022/09/06 03:09:41;;;;;;;3.92;2.88;;;;;;;15.26;41.41;101724.03;5078074;28;20043;-69
2022/09/06 03:12:07;;;;;;;5.47;2.88;;;;;;;15.29;41.24;101715.13;5074767;28;20058;-70
2022/09/06 03:14:34;;;;;;;6.45;3.50;;;;;;;15.30;41.00;101722.09;5075738;28;20515;-69
2022/09/06 03:17:01;;;;;;;4.95;3.20;;;;;;;15.21;41.34;101711.97;5075629;28;20044;-69
2022/09/06 03:19:26;;;;;;;2.72;2.53;;;;;;;15.31;41.02;101714.13;5072728;28;20540;-69
2022/09/06 03:21:52;;;;;;;4.88;3.20;;;;;;;15.13;41.44;101710.53;5059426;28;20490;-70
2022/09/06 03:24:17;;;;;;;4.93;2.90;;;;;;;15.11;41.40;101709.75;5074309;28;20094;-70
2022/09/06 03:26:43;;;;;;;3.53;2.95;;;;;;;14.98;41.74;101700.72;5077089;28;20120;-70
2022/09/06 03:29:08;;;;;;;4.85;3.20;;;;;;;15.16;41.39;101699.84;5091260;28;20052;-70
2022/09/06 03:31:34;;;;;;;7.00;3.10;;;;;;;15.05;41.94;101691.59;5077703;28;20493;-69
2022/09/06 03:34:02;;;;;;;3.63;2.67;;;;;;;15.03;41.68;101690.81;5079941;28;20107;-70
2022/09/06 03:36:28;;;;;;;6.22;3.00;;;;;;;14.92;41.86;101690.44;5081413;28;20418;-73
2022/09/06 03:38:54;;;;;;;5.13;3.15;;;;;;;15.26;41.13;101688.91;5080085;28;20488;-72
2022/09/06 03:41:19;;;;;;;5.70;2.70;;;;;;;15.17;41.24;101701.59;5080628;28;20043;-73
2022/09/06 03:43:45;;;;;;;4.30;2.88;;;;;;;15.06;41.64;101702.97;5079204;28;20104;-73
2022/09/06 03:46:10;;;;;;;2.70;2.50;;;;;;;14.82;41.93;101699.72;5081981;28;20546;-76
2022/09/06 03:48:36;;;;;;;5.82;3.00;;;;;;;15.02;41.74;101694.38;5077702;28;20071;-76
2022/09/06 03:51:01;;;;;;;3.42;3.10;;;;;;;14.84;42.11;101695.22;5080229;28;20078;-73
2022/09/06 03:53:28;;;;;;;6.00;3.25;;;;;;;14.92;42.00;101685.19;5076915;28;20043;-68
2022/09/06 03:55:56;;;;;;;5.53;2.92;;;;;;;15.10;41.52;101680.84;5069645;28;20054;-71
2022/09/06 03:58:23;;;;;;;4.00;3.08;;;;;;;15.05;41.71;101688.97;5090460;28;20040;-69
2022/09/06 04:00:49;;;;;;;3.60;3.08;;;;;;;14.96;41.80;101687.59;5082644;28;20253;-67
2022/09/06 04:03:14;;;;;;;4.20;2.42;;;;;;;15.20;41.11;101692.69;5077690;28;20844;-67
2022/09/06 04:05:45;;;;;;;4.97;3.28;;;;;;;15.09;41.34;101681.78;5079905;28;20446;-68
2022/09/06 04:08:10;;;;;;;3.30;2.53;;;;;;;15.00;41.55;101682.22;5079257;28;20044;-68
2022/09/06 04:10:37;;;;;;;4.50;3.53;;;;;;;14.88;41.84;101683.63;5078935;28;20506;-66
2022/09/06 04:13:02;;;;;;;3.22;2.92;;;;;;;14.89;41.85;101690.59;5070112;28;20391;-68
2022/09/06 04:15:27;;;;;;;4.57;3.22;;;;;;;15.00;41.83;101680.44;5076812;28;20118;-69
2022/09/06 04:17:53;;;;;;;5.60;3.30;;;;;;;14.98;41.68;101679.66;5078867;28;20086;-69
2022/09/06 04:20:18;;;;;;;5.85;2.85;;;;;;;14.77;42.02;101686.75;5075106;28;20071;-73
2022/09/06 04:22:44;;;;;;;5.05;3.50;;;;;;;14.71;42.34;101684.38;5078339;28;20139;-70
2022/09/06 04:25:09;;;;;;;4.75;2.90;;;;;;;14.92;41.95;101686.03;5079395;28;20040;-69
2022/09/06 04:27:35;;;;;;;4.95;3.20;;;;;;;14.83;42.08;101685.59;5094779;28;20047;-71
2022/09/06 04:30:01;;;;;;;3.13;2.33;;;;;;;14.92;42.04;101686.03;5098565;28;20116;-68
2022/09/06 04:32:26;;;;;;;7.82;3.70;;;;;;;14.85;41.93;101681.13;5095536;28;20040;-68
2022/09/06 04:34:52;;;;;;;4.53;3.85;;;;;;;14.96;42.00;101681.50;5081639;28;20032;-67
2022/09/06 04:37:18;;;;;;;3.75;2.78;;;;;;;14.92;41.91;101674.66;5078062;28;20404;-68
2022/09/06 04:39:45;;;;;;;4.32;2.85;;;;;;;15.13;41.09;101686.00;5078763;28;20190;-68
2022/09/06 04:42:10;;;;;;;4.97;2.70;;;;;;;14.91;41.65;101686.97;5076213;28;20412;-68
2022/09/06 04:44:36;;;;;;;4.28;2.85;;;;;;;15.09;41.49;101687.91;5077419;28;20039;-70
2022/09/06 04:47:08;;;;;;;4.47;3.55;;;;;;;15.10;41.39;101684.38;5080114;28;20048;-68
2022/09/06 04:49:34;;;;;;;2.97;2.50;;;;;;;15.12;41.41;101687.75;5075147;28;20028;-68
2022/09/06 04:52:00;;;;;;;4.60;3.38;;;;;;;14.97;41.49;101681.44;5079712;28;20035;-68
2022/09/06 04:54:25;;;;;;;3.55;2.80;;;;;;;15.07;41.55;101691.53;5079424;28;20102;-68
2022/09/06 04:56:51;;;;;;;3.60;2.92;;;;;;;15.01;41.47;101695.28;5080206;28;20984;-70
2022/09/06 04:59:16;;;;;;;3.53;2.45;;;;;;;14.86;41.67;101706.53;5074123;28;20031;-68
2022/09/06 05:01:41;;;;;;;6.05;3.03;;;;;;;15.13;41.39;101699.16;5079106;28;20093;-68
2022/09/06 05:04:07;;;;;;;4.25;2.85;;;;;;;15.15;41.25;101697.31;5081731;28;20071;-69
2022/09/06 05:06:32;;;;;;;2.97;2.50;;;;;;;15.00;41.51;101698.88;5074735;28;20039;-67
2022/09/06 05:08:58;;;;;;;8.35;2.90;;;;;;;15.14;41.51;101706.13;5079908;28;20315;-69
2022/09/06 05:11:24;;;;;;;3.92;2.63;;;;;;;15.20;41.22;101697.94;5074309;28;20027;-68
2022/09/06 05:13:49;;;;;;;3.38;2.92;;;;;;;15.30;40.97;101711.56;5081647;28;20039;-68
2022/09/06 05:16:15;;;;;;;4.47;2.70;;;;;;;15.54;40.63;101714.81;5078346;28;20239;-69
2022/09/06 05:18:41;;;;;;;3.47;3.00;;;;;;;15.13;41.40;101730.75;5075430;28;20036;-70
2022/09/06 05:21:06;;;;;;;6.43;2.65;;;;;;;15.35;41.08;101725.38;5079427;28;20351;-69
2022/09/06 05:23:32;;;;;;;3.63;2.60;;;;;;;15.29;41.24;101729.16;5075304;28;20048;-70
2022/09/06 05:25:57;;;;;;;3.35;2.83;;;;;;;15.25;41.03;101730.22;5079625;28;20032;-69
2022/09/06 05:28:23;;;;;;;3.08;2.78;;;;;;;15.07;41.92;101713.44;5057749;28;20504;-68
2022/09/06 05:30:48;;;;;;;3.13;2.78;;;;;;;15.42;41.23;101710.16;5078956;28;20510;-71
2022/09/06 05:33:21;;;;;;;4.30;2.70;;;;;;;15.40;41.19;101702.31;5076361;28;20039;-70
2022/09/06 05:35:47;;;;;;;7.05;3.38;;;;;;;15.39;41.15;101695.31;5078462;28;20047;-71
2022/09/06 05:38:13;;;;;;;4.38;2.65;;;;;;;15.40;41.11;101697.03;5073963;28;20032;-71
2022/09/06 05:40:39;;;;;;;4.95;2.85;;;;;;;15.41;40.93;101698.75;5077742;28;20140;-69
2022/09/06 05:43:04;;;;;;;4.22;2.90;;;;;;;15.29;41.32;101701.97;5078519;28;20055;-69
2022/09/06 05:45:30;;;;;;;4.45;2.67;;;;;;;15.41;40.93;101708.44;5074680;28;20027;-68
2022/09/06 05:47:55;;;;;;;3.60;2.60;;;;;;;15.38;41.19;101701.53;5077998;28;20942;-69
2022/09/06 05:50:20;;;;;;;3.25;2.83;;;;;;;15.20;41.54;101710.25;5075482;28;20439;-70
2022/09/06 05:52:46;;;;;;;3.90;3.10;;;;;;;14.99;41.90;101702.41;5076986;28;20449;-71
2022/09/06 05:55:12;;;;;;;6.00;3.00;;;;;;;15.23;41.47;101726.78;5077997;28;20362;-69
2022/09/06 05:57:37;;;;;;;4.40;3.25;;;;;;;15.17;41.56;101717.38;5091800;28;20046;-70
2022/09/06 06:00:04;;;;;;;3.45;3.15;;;;;;;15.34;41.40;101721.88;5077784;28;20090;-71
2022/09/06 06:02:37;;;;;;;4.97;2.65;;;;;;;14.94;42.09;101726.31;5073567;28;20036;-71
2022/09/06 06:05:03;;;;;;;5.57;2.20;;;;;;;14.89;42.43;101716.94;5078036;28;20549;-70
2022/09/06 06:07:28;;;;;;;4.93;2.75;;;;;;;14.98;42.32;101721.78;5073178;28;20547;-70
2022/09/06 06:09:54;;;;;;;5.88;2.83;;;;;;;14.95;42.47;101711.38;5079034;28;20035;-69
2022/09/06 06:12:19;;;;;;;4.97;2.83;;;;;;;15.07;42.47;101710.81;5075685;28;20441;-69
2022/09/06 06:14:45;;;;;;;4.53;3.17;;;;;;;15.12;42.25;101708.81;5075884;28;20047;-69
2022/09/06 06:17:10;;;;;;;2.67;2.47;;;;;;;15.46;41.60;101712.56;5075765;28;20496;-69
2022/09/06 06:19:36;;;;;;;4.70;3.22;;;;;;;15.36;41.77;101716.56;5071671;28;20038;-68
2022/09/06 06:22:01;;;;;;;3.70;2.70;;;;;;;15.08;42.51;101722.19;5076329;28;20044;-69
2022/09/06 06:24:27;;;;;;;10.23;2.78;;;;;;;15.15;42.34;101729.75;5075112;28;20039;-70
2022/09/06 06:26:53;;;;;;;4.43;3.05;;;;;;;15.22;42.32;101724.25;5078169;28;20129;-69
2022/09/06 06:29:18;;;;;;;3.90;2.97;;;;;;;15.28;42.04;101729.22;5071925;28;20027;-69
2022/09/06 06:31:44;;;;;;;3.40;2.95;;;;;;;15.15;42.28;101723.66;5075912;28;20119;-68
2022/09/06 06:34:09;;;;;;;6.72;2.85;;;;;;;15.03;42.21;101719.78;5091380;28;20115;-68
2022/09/06 06:36:35;;;;;;;5.13;2.85;;;;;;;15.23;41.85;101715.41;5074956;28;20040;-69
2022/09/06 06:39:04;;;;;;;4.82;2.85;;;;;;;15.38;41.24;101709.44;5088943;28;20488;-69
2022/09/06 06:41:31;;;;;;;7.13;3.10;;;;;;;15.34;41.46;101702.59;5073909;28;20210;-69
2022/09/06 06:43:59;;;;;;;3.85;2.97;;;;;;;15.44;41.44;101708.28;5080963;28;20040;-69
2022/09/06 06:46:27;;;;;;;2.90;2.47;;;;;;;15.17;42.34;101714.75;5075391;28;20069;-69
2022/09/06 06:48:55;;;;;;;4.72;3.15;;;;;;;15.22;42.27;101718.97;5077242;28;20043;-70
2022/09/06 06:51:28;;;;;;;4.20;3.08;;;;;;;15.30;42.12;101716.81;5075337;28;20032;-68
2022/09/06 06:53:57;;;;;;;3.13;2.78;;;;;;;15.21;42.54;101722.50;5077236;28;20071;-69
2022/09/06 06:56:23;;;;;;;6.93;3.53;;;;;;;15.12;42.32;101716.72;5072929;28;20040;-70
2022/09/06 06:58:51;;;;;;;5.68;3.17;;;;;;;15.18;42.16;101721.72;5076752;28;20051;-69
2022/09/06 07:01:20;;;;;;;4.57;3.05;;;;;;;14.95;41.82;101724.56;5074697;28;20024;-69
2022/09/06 07:03:46;;;;;;;3.03;2.70;;;;;;;15.05;41.72;101727.63;5076117;28;20629;-69
2022/09/06 07:06:12;;;;;;;4.55;2.25;;;;;;;15.14;41.36;101732.44;5078731;28;20054;-70
2022/09/06 07:08:38;;;;;;;4.45;2.30;;;;;;;15.23;41.02;101753.13;5051557;28;20040;-71
2022/09/06 07:11:05;;;;;;;3.05;2.13;;;;;;;15.11;40.97;101754.50;5073585;28;20038;-68
2022/09/06 07:13:33;;;;;;;2.72;2.20;;;;;;;15.16;40.93;101770.94;5078154;28;20325;-65
2022/09/06 07:16:09;;;;;;;2.90;2.55;;;;;;;15.43;40.71;101785.59;5079807;28;20047;-67
2022/09/06 07:18:36;;;;;;;5.97;2.03;;;;;;;15.75;39.97;101781.44;5075758;28;20076;-67
2022/09/06 07:21:02;;;;;;;6.55;2.45;;;;;;;15.67;39.69;101786.25;5081124;28;20034;-69
2022/09/06 07:23:27;;;;;;;4.95;2.50;;;;;;;15.51;39.87;101783.47;5076320;28;20032;-70
2022/09/06 07:25:53;;;;;;;6.40;3.15;;;;;;;15.55;39.97;101770.09;5094734;28;20626;-68
2022/09/06 07:28:19;;;;;;;3.80;2.22;;;;;;;15.58;39.70;101774.34;5077833;28;20047;-68
2022/09/06 07:30:45;;;;;;;4.03;2.58;;;;;;;15.52;39.61;101778.13;5078160;28;20330;-68
2022/09/06 07:33:11;;;;;;;3.20;2.08;;;;;;;15.59;39.55;101773.41;5077139;28;20040;-67
2022/09/06 07:35:36;;;;;;;3.30;2.03;;;;;;;15.33;39.87;101793.09;5079018;28;20027;-68
2022/09/06 07:38:04;;;;;;;9.93;2.30;;;;;;;15.30;40.03;101804.59;5079116;28;20595;-70
2022/09/06 07:40:30;;;;;;;4.93;2.42;;;;;;;15.42;40.00;101811.09;5078282;28;20044;-68
2022/09/06 07:42:57;;;;;;;7.80;2.75;;;;;;;15.41;39.91;101809.38;5079173;28;20052;-67
2022/09/06 07:45:22;;;;;;;3.53;2.03;;;;;;;15.09;40.91;101808.16;5080811;28;20135;-68
2022/09/06 07:48:02;;;;;;;4.00;2.15;;;;;;;15.15;40.84;101807.91;5079073;28;20127;-68
2022/09/06 07:50:29;;;;;;;6.57;2.17;;;;;;;15.12;40.76;101803.59;5078357;28;20035;-67
2022/09/06 07:53:02;;;;;;;7.50;1.98;;;;;;;15.00;40.79;101783.09;5076504;28;20139;-69
2022/09/06 07:55:28;;;;;;;4.35;2.45;;;;;;;14.80;41.37;101791.03;5075269;28;20020;-67
2022/09/06 07:57:53;;;;;;;3.60;2.67;;;;;;;14.86;41.16;101788.13;5080045;28;20495;-66
2022/09/06 08:00:18;;;;;;;9.88;5.50;;;;;;;14.93;41.42;101792.19;5074132;28;20035;-67
2022/09/06 08:02:44;;;;;;;7.68;2.53;;;;;;;15.12;41.08;101790.44;5079024;28;20128;-66
2022/09/06 08:05:09;;;;;;;7.28;2.20;;;;;;;15.06;41.05;101790.75;5079553;28;20040;-67
2022/09/06 08:07:35;;;;;;;5.85;1.98;;;;;;;15.02;41.47;101786.53;5075902;28;20117;-67
2022/09/06 08:10:00;;;;;;;7.13;2.72;;;;;;;14.94;41.76;101796.53;5076235;28;20039;-67
2022/09/06 08:12:26;;;;;;;12.50;5.93;;;;;;;14.76;42.75;101796.41;5057253;28;20123;-66
2022/09/06 08:14:52;;;;;;;7.20;3.33;;;;;;;14.94;42.25;101793.91;5063192;28;20028;-67
2022/09/06 08:17:17;;;;;;;8.50;3.80;;;;;;;15.13;41.90;101794.81;5063581;28;20064;-66
2022/09/06 08:19:43;;;;;;;6.63;2.65;;;;;;;14.60;43.34;101797.13;5067064;28;21174;-67
2022/09/06 08:22:08;;;;;;;11.32;3.35;;;;;;;14.70;43.24;101793.19;5063715;28;20137;-66
2022/09/06 08:24:34;;;;;;;4.70;2.67;;;;;;;14.75;43.08;101786.81;5058585;28;20642;-66
2022/09/06 08:27:01;;;;;;;5.07;2.70;;;;;;;14.92;42.88;101780.78;5060076;28;20066;-66
2022/09/06 08:29:26;;;;;;;14.55;3.33;;;;;;;15.11;42.48;101780.00;5077090;28;20031;-66
2022/09/06 08:31:52;;;;;;;4.75;1.95;;;;;;;14.84;42.60;101776.81;5061768;28;20043;-68
2022/09/06 08:34:17;;;;;;;6.28;2.88;;;;;;;14.60;43.16;101774.31;5058401;28;20602;-66
2022/09/06 08:36:44;;;;;;;6.90;2.72;;;;;;;14.53;44.05;101767.59;5060404;28;20431;-67
2022/09/06 08:39:10;;;;;;;9.32;4.03;;;;;;;14.41;43.75;101768.09;5041442;28;20086;-67
2022/09/06 08:41:54;;;;;;;5.18;2.17;;;;;;;14.31;43.44;101762.34;5058567;28;20064;-67
2022/09/06 08:44:47;;;;;;;5.93;2.53;;;;;;;14.59;42.75;101766.47;5059895;28;20683;-66
2022/09/06 08:47:17;;;;;;;2.22;1.88;;;;;;;14.73;42.62;101769.38;5054780;28;20040;-67
2022/09/06 08:49:59;;;;;;;36.13;15.98;;;;;;;14.61;42.65;101770.75;5056672;28;20485;-67
2022/09/06 08:52:31;;;;;;;56.38;22.13;;;;;;;14.51;42.92;101769.44;5059727;28;20039;-67
2022/09/06 08:55:21;;;;;;;13.05;2.88;;;;;;;14.91;41.95;101751.94;5077449;28;20028;-66
2022/09/06 08:57:56;;;;;;;4.75;2.75;;;;;;;14.91;41.95;101768.56;5065837;28;20108;-67
2022/09/06 09:00:22;;;;;;;9.80;3.50;;;;;;;14.91;41.95;101763.31;5067689;28;20377;-66
2022/09/06 09:03:13;;;;;;;4.45;2.30;;;;;;;14.90;41.88;101758.97;5075805;27;20073;-66
2022/09/06 09:05:45;;;;;;;14.48;6.78;;;;;;;14.99;41.48;101757.69;5063832;28;20484;-66
2022/09/06 09:08:33;;;;;;;4.93;2.30;;;;;;;14.91;41.32;101751.94;5066270;28;20524;-65
2022/09/06 09:11:02;;;;;;;4.05;2.60;;;;;;;15.13;40.67;101759.72;5092509;28;20036;-66
2022/09/06 09:13:43;;;;;;;2.90;1.50;;;;;;;14.83;41.58;101752.25;5066031;28;20056;-66
2022/09/06 09:16:08;;;;;;;5.50;2.67;;;;;;;14.98;41.54;101750.72;5077836;28;20032;-66
2022/09/06 09:18:49;;;;;;;5.75;1.67;;;;;;;15.42;40.85;101742.59;5077815;28;20040;-67
2022/09/06 09:21:23;;;;;;;6.60;3.17;;;;;;;14.90;40.96;101747.56;5075258;28;20109;-66
2022/09/06 09:24:03;;;;;;;8.27;2.00;;;;;;;14.80;41.10;101746.28;5047934;28;20119;-66
2022/09/06 09:26:35;;;;;;;5.30;2.13;;;;;;;14.90;40.77;101737.03;5073981;28;20024;-65
2022/09/06 09:29:05;;;;;;;3.67;1.77;;;;;;;15.24;40.28;101732.91;5057314;28;20043;-66
2022/09/06 09:31:48;;;;;;;8.48;1.98;;;;;;;15.51;39.55;101729.00;5062232;28;20123;-66
2022/09/06 09:34:38;;;;;;;3.33;1.50;;;;;;;15.57;39.42;101736.63;5076468;28;20514;-71
2022/09/06 09:37:23;;;;;;;4.25;2.05;;;;;;;15.16;40.06;101731.44;5078026;28;20047;-66
2022/09/06 09:40:03;;;;;;;7.07;1.60;;;;;;;15.03;40.16;101738.19;5072083;28;20028;-68
2022/09/06 09:42:35;;;;;;;8.40;4.43;;;;;;;15.01;39.84;101737.41;5089784;28;20051;-67
2022/09/06 09:45:21;;;;;;;9.60;4.45;;;;;;;15.29;40.10;101737.06;5077630;28;20485;-67
2022/09/06 09:47:47;;;;;;;6.72;1.33;;;;;;;15.51;39.12;101731.63;5067388;28;20158;-68
2022/09/06 09:50:36;;;;;;;2.97;1.45;;;;;;;15.32;39.28;101729.00;5077330;28;20115;-67
2022/09/06 09:53:28;;;;;;;6.60;2.83;;;;;;;15.03;39.78;101730.31;5077818;28;20385;-67
2022/09/06 09:56:00;;;;;;;4.43;2.20;;;;;;;14.91;39.99;101730.88;5078750;28;20110;-67
2022/09/06 09:58:32;;;;;;;7.10;1.77;;;;;;;14.93;40.01;101724.59;5075147;28;20420;-66
2022/09/06 10:01:10;;;;;;;4.32;1.65;;;;;;;14.90;39.96;101735.28;5077833;28;20031;-66
2022/09/06 10:03:38;;;;;;;9.77;1.92;;;;;;;14.62;40.27;101730.38;5052123;28;20572;-67
2022/09/06 10:06:13;;;;;;;8.13;1.92;;;;;;;14.92;39.86;101727.31;5075685;28;20100;-69
2022/09/06 10:08:42;;;;;;;4.43;1.45;;;;;;;14.48;40.90;101727.50;5076976;28;20035;-68
2022/09/06 10:11:14;;;;;;;3.60;1.40;;;;;;;14.61;41.03;101728.66;5077367;28;20568;-68
2022/09/06 10:13:43;;;;;;;8.50;4.30;;;;;;;14.77;40.65;101734.13;5076151;28;20047;-69
2022/09/06 10:16:14;;;;;;;3.58;1.40;;;;;;;15.16;39.67;101723.56;5073273;28;20016;-68
2022/09/06 10:18:42;;;;;;;10.95;4.53;;;;;;;15.46;39.76;101723.09;5057789;28;20032;-69
2022/09/06 10:21:18;;;;;;;3.30;1.13;;;;;;;15.54;39.31;101715.66;5059880;28;20165;-69
2022/09/06 10:24:30;;;;;;;3.88;1.00;;;;;;;15.45;39.41;101725.81;5049376;28;20228;-69
2022/09/06 10:27:02;;;;;;;7.00;1.42;;;;;;;15.55;38.99;101725.31;5017657;28;20032;-68
2022/09/06 10:29:35;;;;;;;4.40;1.25;;;;;;;15.38;39.06;101722.59;5015422;28;20627;-68
2022/09/06 10:32:09;;;;;;;30.65;15.27;;;;;;;16.05;38.15;101712.41;5032066;28;20054;-68
2022/09/06 10:35:04;;;;;;;6.55;1.15;;;;;;;16.29;37.43;101719.06;5059587;28;20074;-68
2022/09/06 10:38:06;;;;;;;4.05;1.17;;;;;;;16.08;38.01;101712.22;5045430;28;20155;-69
2022/09/06 10:41:09;;;;;;;4.00;2.10;;;;;;;16.17;37.22;101727.59;5068913;28;20028;-70
2022/09/06 10:44:01;;;;;;;4.57;1.30;;;;;;;16.18;37.73;101732.78;5057617;28;20144;-67
2022/09/06 10:46:30;;;;;;;3.78;1.73;;;;;;;16.40;37.57;101732.56;5091793;28;20127;-69
2022/09/06 10:49:05;;;;;;;2.95;1.42;;;;;;;16.35;37.60;101734.59;5064626;28;20036;-68
2022/09/06 10:51:44;;;;;;;2.95;0.85;;;;;;;16.16;37.14;101731.16;5076483;28;20421;-67
2022/09/06 10:54:17;;;;;;;5.47;1.08;;;;;;;16.93;35.78;101730.69;5061526;28;22423;-68
2022/09/06 10:56:49;;;;;;;5.35;1.42;;;;;;;17.55;34.98;101737.94;5072693;28;20039;-68
2022/09/06 10:59:27;;;;;;;2.17;1.17;;;;;;;17.94;34.39;101731.31;5072428;28;20283;-68
2022/09/06 11:02:36;;;;;;;1.73;1.00;;;;;;;17.64;34.80;101733.00;5064511;28;20529;-68
2022/09/06 11:05:07;;;;;;;2.80;1.33;;;;;;;18.01;34.04;101712.38;5020333;28;20067;-68
2022/09/06 11:07:42;;;;;;;4.05;1.25;;;;;;;18.40;33.78;101721.56;5058197;28;20163;-68
2022/09/06 11:10:17;;;;;;;3.22;1.40;;;;;;;18.18;33.66;101713.16;5072858;28;20796;-69
2022/09/06 11:13:03;;;;;;;5.20;1.77;;;;;;;18.54;32.79;101722.53;5072596;28;20032;-68
2022/09/06 11:15:49;;;;;;;1.98;1.05;;;;;;;17.55;34.44;101716.81;5087134;28;20544;-69
2022/09/06 11:18:17;;;;;;;6.65;1.00;;;;;;;17.69;34.14;101708.09;5053589;28;20044;-68
2022/09/06 11:21:16;;;;;;;2.50;1.00;;;;;;;18.09;33.71;101711.06;5056985;28;20032;-69
2022/09/06 11:23:47;;;;;;;5.07;1.55;;;;;;;17.59;34.22;101700.69;5054608;28;20047;-70
2022/09/06 11:26:37;;;;;;;2.97;1.30;;;;;;;17.39;35.10;101708.88;5056783;28;20032;-70
2022/09/06 11:29:09;;;;;;;2.25;1.42;;;;;;;17.77;34.79;101711.16;5046539;28;20072;-69
2022/09/06 11:31:57;;;;;;;6.05;1.40;;;;;;;17.84;34.72;101728.38;5058711;28;20890;-68
2022/09/06 11:34:39;;;;;;;3.70;1.15;;;;;;;17.92;34.13;101718.22;5053323;28;20105;-68
2022/09/06 11:37:21;;;;;;;6.00;1.58;;;;;;;18.02;34.34;101711.44;5057264;28;20040;-68
2022/09/06 11:40:05;;;;;;;3.20;1.40;;;;;;;17.77;34.69;101705.88;5056102;28;20437;-69